createdAt,value
2022-12-05T00:01:54.329Z,0.00
2022-12-05T00:06:55.449Z,0.00
2022-12-05T00:11:57.817Z,0.00
2022-12-05T00:16:57.050Z,0.00
2022-12-05T00:21:58.164Z,0.00
2022-12-05T00:26:58.352Z,0.00
2022-12-05T00:32:00.607Z,0.00
2022-12-05T00:37:00.742Z,0.00
2022-12-05T00:41:59.909Z,0.00
2022-12-05T00:47:01.113Z,0.00
2022-12-05T00:52:02.246Z,0.00
2022-12-05T00:57:03.337Z,0.00
2022-12-05T01:02:05.460Z,0.00
2022-12-05T01:07:04.592Z,0.00
2022-12-05T01:12:05.695Z,0.00
2022-12-05T01:17:06.916Z,0.00
2022-12-05T01:22:08.051Z,0.00
2022-12-05T01:27:09.204Z,0.00
2022-12-05T01:32:10.440Z,0.00
2022-12-05T01:37:11.593Z,0.00
2022-12-05T01:42:12.741Z,0.00
2022-12-05T01:47:15.842Z,0.00
2022-12-05T01:52:14.935Z,0.00
2022-12-05T01:57:16.074Z,0.00
2022-12-05T02:02:17.286Z,0.00
2022-12-05T02:07:18.478Z,0.00
2022-12-05T02:12:20.552Z,0.00
2022-12-05T02:17:19.734Z,0.00
2022-12-05T02:22:19.915Z,0.00
2022-12-05T02:27:21.057Z,0.00
2022-12-05T02:32:22.165Z,0.00
2022-12-05T02:37:23.332Z,0.00
2022-12-05T02:42:24.521Z,0.00
2022-12-05T02:47:25.671Z,0.00
2022-12-05T02:52:26.826Z,0.00
2022-12-05T02:57:27.989Z,0.00
2022-12-05T03:02:29.124Z,0.00
2022-12-05T03:07:30.290Z,0.00
2022-12-05T03:12:31.409Z,0.00
2022-12-05T03:17:32.526Z,0.00
2022-12-05T03:22:33.684Z,0.00
2022-12-05T03:27:34.810Z,0.00
2022-12-05T03:32:35.958Z,0.00
2022-12-05T03:37:37.148Z,0.00
2022-12-05T03:42:38.306Z,0.00
2022-12-05T03:47:39.474Z,0.00
2022-12-05T03:53:03.656Z,0.00
2022-12-05T03:57:40.897Z,0.00
2022-12-05T04:02:42.038Z,0.00
2022-12-05T04:07:43.180Z,0.00
2022-12-05T04:12:44.289Z,0.00
2022-12-05T04:17:50.477Z,0.00
2022-12-05T04:22:45.461Z,0.00
2022-12-05T04:27:46.613Z,0.00
2022-12-05T04:32:47.753Z,0.00
2022-12-05T04:37:48.863Z,0.00
2022-12-05T04:42:50.968Z,0.00
2022-12-05T04:47:50.122Z,0.00
2022-12-05T04:52:51.282Z,0.00
2022-12-05T04:57:52.429Z,0.00
2022-12-05T05:02:53.686Z,0.00
2022-12-05T05:07:54.910Z,0.00
2022-12-05T05:12:56.086Z,0.00
2022-12-05T05:17:57.217Z,0.00
2022-12-05T05:22:58.357Z,0.00
2022-12-05T05:28:00.445Z,0.00
2022-12-05T05:33:00.564Z,0.00
2022-12-05T05:38:00.705Z,0.00
2022-12-05T05:42:59.830Z,0.00
2022-12-05T05:48:00.990Z,0.00
2022-12-05T05:53:02.124Z,0.00
2022-12-05T05:58:03.269Z,0.00
2022-12-05T06:03:04.549Z,0.00
2022-12-05T06:08:05.779Z,0.00
2022-12-05T06:13:06.962Z,0.00
2022-12-05T06:18:09.077Z,0.00
2022-12-05T06:23:08.173Z,0.00
2022-12-05T06:28:09.364Z,0.00
2022-12-05T06:33:10.523Z,0.00
2022-12-05T06:38:11.711Z,0.00
2022-12-05T06:43:12.857Z,0.00
2022-12-05T06:48:14.007Z,0.00
2022-12-05T06:53:15.166Z,0.00
2022-12-05T06:58:16.338Z,0.00
2022-12-05T07:03:18.418Z,0.00
2022-12-05T07:08:17.584Z,0.00
2022-12-05T07:13:19.717Z,5.62
2022-12-05T07:18:19.901Z,5.62
2022-12-05T07:23:19.038Z,5.62
2022-12-05T07:28:20.185Z,5.62
2022-12-05T07:33:21.342Z,11.25
2022-12-05T07:38:23.510Z,11.25
2022-12-05T07:43:22.647Z,5.62
2022-12-05T07:48:23.849Z,5.62
2022-12-05T07:53:26.074Z,5.62
2022-12-05T07:58:25.220Z,11.25
2022-12-05T08:03:27.406Z,16.88
2022-12-05T08:08:26.587Z,16.88
2022-12-05T08:13:27.724Z,22.50
2022-12-05T08:18:29.822Z,22.50
2022-12-05T08:23:28.977Z,28.12
2022-12-05T08:28:32.098Z,45.00
2022-12-05T08:33:31.227Z,39.38
2022-12-05T08:38:33.325Z,33.75
2022-12-05T08:43:32.425Z,39.38
2022-12-05T08:48:34.768Z,45.00
2022-12-05T08:53:38.327Z,39.38
2022-12-05T08:58:34.853Z,56.25
2022-12-05T09:03:35.969Z,61.88
2022-12-05T09:08:37.087Z,56.25
2022-12-05T09:13:38.494Z,45.00
2022-12-05T09:18:39.636Z,33.75
2022-12-05T09:23:40.801Z,33.75
2022-12-05T09:28:41.920Z,33.75
2022-12-05T09:33:43.091Z,33.75
2022-12-05T09:38:43.255Z,39.38
2022-12-05T09:43:44.415Z,45.00
2022-12-05T09:48:46.540Z,45.00
2022-12-05T09:53:45.751Z,39.38
2022-12-05T09:58:47.883Z,45.00
2022-12-05T10:03:48.030Z,56.25
2022-12-05T10:08:47.147Z,50.62
2022-12-05T10:13:48.301Z,39.38
2022-12-05T10:18:49.441Z,39.38
2022-12-05T10:23:57.503Z,50.62
2022-12-05T10:28:50.562Z,45.00
2022-12-05T10:33:50.716Z,45.00
2022-12-05T10:38:52.835Z,67.50
2022-12-05T10:43:51.980Z,73.12
2022-12-05T10:48:53.147Z,67.50
2022-12-05T10:53:54.224Z,106.88
2022-12-05T10:58:55.646Z,101.25
2022-12-05T11:03:55.574Z,73.12
2022-12-05T11:09:05.435Z,67.50
2022-12-05T11:13:56.699Z,112.50
2022-12-05T11:18:57.829Z,78.75
2022-12-05T11:23:58.978Z,90.00
2022-12-05T11:29:00.106Z,106.88
2022-12-05T11:34:02.272Z,95.62
2022-12-05T11:39:01.900Z,84.38
2022-12-05T11:44:03.027Z,67.50
2022-12-05T11:49:04.130Z,56.25
2022-12-05T11:54:05.306Z,73.12
2022-12-05T11:59:06.406Z,90.00
2022-12-05T12:04:07.532Z,73.12
2022-12-05T12:09:08.676Z,61.88
2022-12-05T12:14:09.802Z,56.25
2022-12-05T12:19:10.911Z,67.50
2022-12-05T12:24:12.079Z,73.12
2022-12-05T12:29:14.278Z,95.62
2022-12-05T12:34:13.422Z,106.88
2022-12-05T12:39:14.559Z,95.62
2022-12-05T12:44:15.693Z,78.75
2022-12-05T12:49:17.793Z,84.38
2022-12-05T12:54:25.318Z,101.25
2022-12-05T12:59:16.882Z,106.88
2022-12-05T13:04:19.015Z,106.88
2022-12-05T13:09:19.178Z,106.88
2022-12-05T13:14:18.311Z,106.88
2022-12-05T13:19:19.476Z,112.50
2022-12-05T13:24:20.613Z,112.50
2022-12-05T13:29:22.873Z,106.88
2022-12-05T13:34:23.093Z,106.88
2022-12-05T13:39:22.851Z,118.12
2022-12-05T13:44:22.953Z,135.00
2022-12-05T13:49:23.039Z,112.50
2022-12-05T13:54:22.157Z,106.88
2022-12-05T13:59:24.308Z,95.62
2022-12-05T14:04:24.472Z,95.62
2022-12-05T14:09:23.571Z,84.38
2022-12-05T14:14:25.711Z,73.12
2022-12-05T14:19:27.603Z,67.50
2022-12-05T14:24:25.790Z,73.12
2022-12-05T14:29:24.915Z,73.12
2022-12-05T14:34:26.021Z,78.75
2022-12-05T14:39:31.027Z,73.12
2022-12-05T14:44:28.116Z,56.25
2022-12-05T14:49:29.272Z,45.00
2022-12-05T14:54:32.414Z,39.38
2022-12-05T14:59:32.620Z,33.75
2022-12-05T15:04:30.818Z,28.12
2022-12-05T15:09:39.202Z,22.50
2022-12-05T15:14:31.509Z,16.88
2022-12-05T15:19:32.694Z,11.25
2022-12-05T15:24:33.852Z,5.62
2022-12-05T15:29:35.011Z,5.62
2022-12-05T15:34:36.126Z,0.00
2022-12-05T15:39:38.240Z,0.00
2022-12-05T15:44:38.527Z,0.00
2022-12-05T15:49:37.692Z,0.00
2022-12-05T15:54:38.810Z,0.00
2022-12-05T15:59:40.277Z,0.00
2022-12-05T16:04:41.407Z,0.00
2022-12-05T16:09:42.576Z,0.00
2022-12-05T16:15:00.562Z,0.00
2022-12-05T16:19:44.673Z,0.00
2022-12-05T16:24:43.831Z,0.00
2022-12-05T16:29:44.941Z,0.00
2022-12-05T16:34:46.089Z,0.00
2022-12-05T16:39:48.206Z,0.00
2022-12-05T16:44:47.390Z,0.00
2022-12-05T16:49:48.535Z,0.00
2022-12-05T16:54:49.902Z,0.00
2022-12-05T16:59:51.067Z,0.00
2022-12-05T17:04:52.437Z,0.00
2022-12-05T17:09:51.672Z,0.00
2022-12-05T17:14:52.832Z,0.00
2022-12-05T17:19:55.659Z,0.00
2022-12-05T17:24:55.501Z,0.00
2022-12-05T17:29:57.336Z,0.00
2022-12-05T17:34:57.052Z,0.00
2022-12-05T17:39:58.481Z,0.00
2022-12-05T17:44:58.253Z,0.00
2022-12-05T17:49:59.887Z,0.00
2022-12-05T17:54:57.618Z,0.00
2022-12-05T17:59:56.970Z,0.00
2022-12-05T18:04:59.300Z,0.00
2022-12-05T18:09:59.922Z,0.00
2022-12-05T18:14:59.345Z,0.00
2022-12-05T18:19:58.718Z,0.00
2022-12-05T18:25:00.433Z,0.00
2022-12-05T18:30:00.165Z,0.00
2022-12-05T18:34:59.948Z,0.00
2022-12-05T18:40:00.323Z,0.00
2022-12-05T18:45:00.073Z,0.00
2022-12-05T18:50:01.740Z,0.00
2022-12-05T18:55:16.401Z,0.00
2022-12-05T19:00:00.348Z,0.00
2022-12-05T19:05:01.443Z,0.00
2022-12-05T19:10:00.963Z,0.00
2022-12-05T19:15:02.543Z,0.00
2022-12-05T19:20:03.006Z,0.00
2022-12-05T19:25:03.164Z,0.00
2022-12-05T19:30:07.956Z,0.00
2022-12-05T19:35:02.775Z,0.00
2022-12-05T19:40:03.013Z,0.00
2022-12-05T19:45:08.327Z,0.00
2022-12-05T19:50:03.651Z,0.00
2022-12-05T19:55:02.913Z,0.00
2022-12-05T20:00:03.288Z,0.00
2022-12-05T20:05:04.744Z,0.00
2022-12-05T20:10:06.217Z,0.00
2022-12-05T20:15:05.821Z,0.00
2022-12-05T20:20:05.284Z,0.00
2022-12-05T20:25:04.605Z,0.00
2022-12-05T20:30:07.022Z,0.00
2022-12-05T20:35:06.450Z,0.00
2022-12-05T20:40:07.964Z,0.00
2022-12-05T20:45:07.432Z,0.00
2022-12-05T20:50:06.924Z,0.00
2022-12-05T20:55:06.329Z,0.00
2022-12-05T21:00:08.439Z,0.00
2022-12-05T21:05:07.727Z,0.00
2022-12-05T21:10:09.231Z,0.00
2022-12-05T21:15:08.849Z,0.00
2022-12-05T21:20:08.057Z,0.00
2022-12-05T21:25:09.237Z,0.00
2022-12-05T21:30:10.453Z,0.00
2022-12-05T21:35:11.604Z,0.00
2022-12-05T21:40:12.769Z,0.00
2022-12-05T21:45:13.928Z,0.00
2022-12-05T21:50:16.014Z,0.00
2022-12-05T21:55:16.129Z,0.00
2022-12-05T22:00:15.276Z,0.00
2022-12-05T22:05:16.427Z,0.00
2022-12-05T22:10:17.636Z,0.00
2022-12-05T22:15:19.037Z,0.00
2022-12-05T22:20:20.200Z,0.00
2022-12-05T22:25:22.320Z,0.00
2022-12-05T22:30:21.500Z,0.00
2022-12-05T22:35:22.689Z,0.00
2022-12-05T22:40:23.867Z,0.00
2022-12-05T22:45:25.065Z,0.00
2022-12-05T22:50:26.207Z,0.00
2022-12-05T22:55:27.370Z,0.00
2022-12-05T23:00:28.632Z,0.00
2022-12-05T23:05:29.783Z,0.00
2022-12-05T23:10:30.921Z,0.00
2022-12-05T23:15:32.126Z,0.00
2022-12-05T23:20:33.275Z,0.00
2022-12-05T23:25:34.447Z,0.00
2022-12-05T23:30:35.652Z,0.00
2022-12-05T23:35:36.887Z,0.00
2022-12-05T23:40:38.035Z,0.00
2022-12-05T23:45:40.162Z,0.00
2022-12-05T23:50:39.407Z,0.00
2022-12-05T23:55:40.572Z,0.00
